sensor_id;sensor_type;location;lat;lon;timestamp;temperature;humidity
70986;DHT22;58645;43.068;25.610;2023-04-25T00:01:18;12.90;99.90
70986;DHT22;58645;43.068;25.610;2023-04-25T00:03:44;12.80;99.90
70986;DHT22;58645;43.068;25.610;2023-04-25T00:06:11;12.80;99.90
70986;DHT22;58645;43.068;25.610;2023-04-25T00:08:37;12.80;99.90
70986;DHT22;58645;43.068;25.610;2023-04-25T00:11:03;12.80;99.90
70986;DHT22;58645;43.068;25.610;2023-04-25T00:13:29;12.90;99.90
70986;DHT22;58645;43.068;25.610;2023-04-25T00:15:55;12.80;99.90
70986;DHT22;58645;43.068;25.610;2023-04-25T00:18:22;12.90;99.90
70986;DHT22;58645;43.068;25.610;2023-04-25T00:20:48;12.80;99.90
70986;DHT22;58645;43.068;25.610;2023-04-25T00:23:14;12.80;99.90
70986;DHT22;58645;43.068;25.610;2023-04-25T00:25:52;12.70;99.90
70986;DHT22;58645;43.068;25.610;2023-04-25T00:28:18;12.50;99.90
70986;DHT22;58645;43.068;25.610;2023-04-25T00:30:44;12.70;99.90
70986;DHT22;58645;43.068;25.610;2023-04-25T00:33:10;12.70;99.90
70986;DHT22;58645;43.068;25.610;2023-04-25T00:35:37;12.60;99.90
70986;DHT22;58645;43.068;25.610;2023-04-25T00:38:03;12.60;99.90
70986;DHT22;58645;43.068;25.610;2023-04-25T00:40:29;12.60;99.90
70986;DHT22;58645;43.068;25.610;2023-04-25T00:42:55;12.50;99.90
70986;DHT22;58645;43.068;25.610;2023-04-25T00:45:21;12.50;99.90
70986;DHT22;58645;43.068;25.610;2023-04-25T00:47:46;12.50;99.90
70986;DHT22;58645;43.068;25.610;2023-04-25T00:50:13;12.50;99.90
70986;DHT22;58645;43.068;25.610;2023-04-25T00:52:42;12.50;99.90
70986;DHT22;58645;43.068;25.610;2023-04-25T00:55:08;12.50;99.90
70986;DHT22;58645;43.068;25.610;2023-04-25T00:57:35;12.50;99.90
70986;DHT22;58645;43.068;25.610;2023-04-25T01:00:02;12.40;99.90
70986;DHT22;58645;43.068;25.610;2023-04-25T01:02:29;12.40;99.90
70986;DHT22;58645;43.068;25.610;2023-04-25T01:04:55;12.30;99.90
70986;DHT22;58645;43.068;25.610;2023-04-25T01:07:21;12.30;99.90
70986;DHT22;58645;43.068;25.610;2023-04-25T01:09:46;12.30;99.90
70986;DHT22;58645;43.068;25.610;2023-04-25T01:12:13;12.30;99.90
70986;DHT22;58645;43.068;25.610;2023-04-25T01:14:40;12.30;99.90
70986;DHT22;58645;43.068;25.610;2023-04-25T01:17:05;12.30;99.90
70986;DHT22;58645;43.068;25.610;2023-04-25T01:19:33;12.30;99.90
70986;DHT22;58645;43.068;25.610;2023-04-25T01:21:59;12.30;99.90
70986;DHT22;58645;43.068;25.610;2023-04-25T01:24:25;12.30;99.90
70986;DHT22;58645;43.068;25.610;2023-04-25T01:26:51;12.30;99.90
70986;DHT22;58645;43.068;25.610;2023-04-25T01:29:19;12.30;99.90
70986;DHT22;58645;43.068;25.610;2023-04-25T01:31:46;12.30;99.90
70986;DHT22;58645;43.068;25.610;2023-04-25T01:34:12;12.30;99.90
70986;DHT22;58645;43.068;25.610;2023-04-25T01:36:38;12.40;99.90
70986;DHT22;58645;43.068;25.610;2023-04-25T01:39:04;12.40;99.90
70986;DHT22;58645;43.068;25.610;2023-04-25T01:41:31;12.40;99.90
70986;DHT22;58645;43.068;25.610;2023-04-25T01:43:57;12.40;99.90
70986;DHT22;58645;43.068;25.610;2023-04-25T01:46:23;12.30;99.90
70986;DHT22;58645;43.068;25.610;2023-04-25T01:48:49;12.30;99.90
70986;DHT22;58645;43.068;25.610;2023-04-25T01:51:15;12.20;99.90
70986;DHT22;58645;43.068;25.610;2023-04-25T01:53:41;12.20;99.90
70986;DHT22;58645;43.068;25.610;2023-04-25T01:56:07;12.20;99.90
70986;DHT22;58645;43.068;25.610;2023-04-25T01:58:33;12.20;99.90
70986;DHT22;58645;43.068;25.610;2023-04-25T02:00:59;12.50;99.90
70986;DHT22;58645;43.068;25.610;2023-04-25T02:03:25;12.30;99.90
70986;DHT22;58645;43.068;25.610;2023-04-25T02:05:50;12.30;99.90
70986;DHT22;58645;43.068;25.610;2023-04-25T02:08:17;12.30;99.90
70986;DHT22;58645;43.068;25.610;2023-04-25T02:10:43;12.20;99.90
70986;DHT22;58645;43.068;25.610;2023-04-25T02:13:09;12.30;99.90
70986;DHT22;58645;43.068;25.610;2023-04-25T02:15:35;12.30;99.90
70986;DHT22;58645;43.068;25.610;2023-04-25T02:18:01;12.30;99.90
70986;DHT22;58645;43.068;25.610;2023-04-25T02:20:28;12.30;99.90
70986;DHT22;58645;43.068;25.610;2023-04-25T02:22:54;12.30;99.90
70986;DHT22;58645;43.068;25.610;2023-04-25T02:25:20;12.30;99.90
70986;DHT22;58645;43.068;25.610;2023-04-25T02:27:47;12.30;99.90
70986;DHT22;58645;43.068;25.610;2023-04-25T02:30:13;12.20;99.90
70986;DHT22;58645;43.068;25.610;2023-04-25T02:32:39;12.20;99.90
70986;DHT22;58645;43.068;25.610;2023-04-25T02:35:06;12.20;99.90
70986;DHT22;58645;43.068;25.610;2023-04-25T02:37:32;12.20;99.90
70986;DHT22;58645;43.068;25.610;2023-04-25T02:39:58;12.10;99.90
70986;DHT22;58645;43.068;25.610;2023-04-25T02:42:23;12.10;99.90
70986;DHT22;58645;43.068;25.610;2023-04-25T02:44:49;12.10;99.90
70986;DHT22;58645;43.068;25.610;2023-04-25T02:47:15;12.10;99.90
70986;DHT22;58645;43.068;25.610;2023-04-25T02:49:41;12.00;99.90
70986;DHT22;58645;43.068;25.610;2023-04-25T02:52:07;12.00;99.90
70986;DHT22;58645;43.068;25.610;2023-04-25T02:54:32;12.00;99.90
70986;DHT22;58645;43.068;25.610;2023-04-25T02:56:58;12.00;99.90
70986;DHT22;58645;43.068;25.610;2023-04-25T02:59:24;12.00;99.90
70986;DHT22;58645;43.068;25.610;2023-04-25T03:01:50;12.00;99.90
70986;DHT22;58645;43.068;25.610;2023-04-25T03:04:15;12.00;99.90
70986;DHT22;58645;43.068;25.610;2023-04-25T03:06:41;12.00;99.90
70986;DHT22;58645;43.068;25.610;2023-04-25T03:09:07;12.00;99.90
70986;DHT22;58645;43.068;25.610;2023-04-25T03:11:33;11.90;99.90
70986;DHT22;58645;43.068;25.610;2023-04-25T03:13:58;11.90;99.90
70986;DHT22;58645;43.068;25.610;2023-04-25T03:16:24;11.80;99.90
70986;DHT22;58645;43.068;25.610;2023-04-25T03:18:50;11.80;99.90
70986;DHT22;58645;43.068;25.610;2023-04-25T03:21:16;11.80;99.90
70986;DHT22;58645;43.068;25.610;2023-04-25T03:23:42;11.80;99.90
70986;DHT22;58645;43.068;25.610;2023-04-25T03:26:08;11.80;99.90
70986;DHT22;58645;43.068;25.610;2023-04-25T03:28:34;11.80;99.90
70986;DHT22;58645;43.068;25.610;2023-04-25T03:30:59;11.80;99.90
70986;DHT22;58645;43.068;25.610;2023-04-25T03:33:25;11.80;99.90
70986;DHT22;58645;43.068;25.610;2023-04-25T03:35:51;11.90;99.90
70986;DHT22;58645;43.068;25.610;2023-04-25T03:38:17;11.90;99.90
70986;DHT22;58645;43.068;25.610;2023-04-25T03:40:43;11.90;99.90
70986;DHT22;58645;43.068;25.610;2023-04-25T03:43:09;12.00;99.90
70986;DHT22;58645;43.068;25.610;2023-04-25T03:45:35;12.00;99.90
70986;DHT22;58645;43.068;25.610;2023-04-25T03:48:00;12.00;99.90
70986;DHT22;58645;43.068;25.610;2023-04-25T03:50:28;12.00;99.90
70986;DHT22;58645;43.068;25.610;2023-04-25T03:52:54;12.10;99.90
70986;DHT22;58645;43.068;25.610;2023-04-25T03:55:20;12.10;99.90
70986;DHT22;58645;43.068;25.610;2023-04-25T03:57:45;12.20;99.90
70986;DHT22;58645;43.068;25.610;2023-04-25T04:00:12;12.20;99.90
70986;DHT22;58645;43.068;25.610;2023-04-25T04:02:38;12.20;99.90
70986;DHT22;58645;43.068;25.610;2023-04-25T04:05:04;12.30;99.90
70986;DHT22;58645;43.068;25.610;2023-04-25T04:07:31;12.30;99.90
70986;DHT22;58645;43.068;25.610;2023-04-25T04:09:58;12.40;99.90
70986;DHT22;58645;43.068;25.610;2023-04-25T04:12:24;12.40;99.90
70986;DHT22;58645;43.068;25.610;2023-04-25T04:14:50;12.40;99.90
70986;DHT22;58645;43.068;25.610;2023-04-25T04:17:16;12.40;99.90
70986;DHT22;58645;43.068;25.610;2023-04-25T04:19:41;12.40;99.90
70986;DHT22;58645;43.068;25.610;2023-04-25T04:22:07;12.50;99.90
70986;DHT22;58645;43.068;25.610;2023-04-25T04:24:33;12.40;99.90
70986;DHT22;58645;43.068;25.610;2023-04-25T04:26:58;12.50;99.90
70986;DHT22;58645;43.068;25.610;2023-04-25T04:29:24;12.40;99.90
70986;DHT22;58645;43.068;25.610;2023-04-25T04:31:51;12.50;99.90
70986;DHT22;58645;43.068;25.610;2023-04-25T04:34:18;12.50;99.90
70986;DHT22;58645;43.068;25.610;2023-04-25T04:36:47;12.50;99.90
70986;DHT22;58645;43.068;25.610;2023-04-25T04:39:13;12.60;99.90
70986;DHT22;58645;43.068;25.610;2023-04-25T04:41:39;12.50;99.90
70986;DHT22;58645;43.068;25.610;2023-04-25T04:44:06;12.60;99.90
70986;DHT22;58645;43.068;25.610;2023-04-25T04:46:35;12.60;99.90
70986;DHT22;58645;43.068;25.610;2023-04-25T04:49:06;12.60;99.90
70986;DHT22;58645;43.068;25.610;2023-04-25T04:51:32;12.70;99.90
70986;DHT22;58645;43.068;25.610;2023-04-25T04:53:59;12.70;99.90
70986;DHT22;58645;43.068;25.610;2023-04-25T04:56:28;12.70;99.90
70986;DHT22;58645;43.068;25.610;2023-04-25T04:58:57;12.70;99.90
70986;DHT22;58645;43.068;25.610;2023-04-25T05:01:26;12.70;99.90
70986;DHT22;58645;43.068;25.610;2023-04-25T05:03:52;12.70;99.90
70986;DHT22;58645;43.068;25.610;2023-04-25T05:06:19;12.80;99.90
70986;DHT22;58645;43.068;25.610;2023-04-25T05:08:44;12.90;99.90
70986;DHT22;58645;43.068;25.610;2023-04-25T05:11:10;13.00;99.90
70986;DHT22;58645;43.068;25.610;2023-04-25T05:13:36;13.00;99.90
70986;DHT22;58645;43.068;25.610;2023-04-25T05:16:03;13.00;99.90
70986;DHT22;58645;43.068;25.610;2023-04-25T05:18:29;13.10;99.90
70986;DHT22;58645;43.068;25.610;2023-04-25T05:20:55;13.20;99.90
70986;DHT22;58645;43.068;25.610;2023-04-25T05:23:21;13.30;99.90
70986;DHT22;58645;43.068;25.610;2023-04-25T05:25:46;13.40;99.90
70986;DHT22;58645;43.068;25.610;2023-04-25T05:28:13;13.50;99.90
70986;DHT22;58645;43.068;25.610;2023-04-25T05:30:39;13.60;99.90
70986;DHT22;58645;43.068;25.610;2023-04-25T05:33:05;13.70;99.90
70986;DHT22;58645;43.068;25.610;2023-04-25T05:35:30;13.80;99.90
70986;DHT22;58645;43.068;25.610;2023-04-25T05:38:04;14.00;99.90
70986;DHT22;58645;43.068;25.610;2023-04-25T05:40:30;14.10;99.90
70986;DHT22;58645;43.068;25.610;2023-04-25T05:45:50;14.40;99.90
70986;DHT22;58645;43.068;25.610;2023-04-25T05:48:16;14.50;99.90
70986;DHT22;58645;43.068;25.610;2023-04-25T05:50:45;14.70;99.90
70986;DHT22;58645;43.068;25.610;2023-04-25T05:53:10;15.20;99.90
70986;DHT22;58645;43.068;25.610;2023-04-25T05:55:36;16.20;99.90
70986;DHT22;58645;43.068;25.610;2023-04-25T05:58:02;17.10;99.90
70986;DHT22;58645;43.068;25.610;2023-04-25T06:00:28;17.40;99.90
70986;DHT22;58645;43.068;25.610;2023-04-25T06:02:59;17.90;99.90
70986;DHT22;58645;43.068;25.610;2023-04-25T06:05:29;18.00;99.90
70986;DHT22;58645;43.068;25.610;2023-04-25T06:07:55;18.10;99.90
70986;DHT22;58645;43.068;25.610;2023-04-25T06:10:21;17.80;99.90
70986;DHT22;58645;43.068;25.610;2023-04-25T06:12:49;17.80;99.90
70986;DHT22;58645;43.068;25.610;2023-04-25T06:15:14;18.40;99.90
70986;DHT22;58645;43.068;25.610;2023-04-25T06:17:41;18.40;99.90
70986;DHT22;58645;43.068;25.610;2023-04-25T06:20:08;18.00;99.90
70986;DHT22;58645;43.068;25.610;2023-04-25T06:22:34;17.90;99.90
70986;DHT22;58645;43.068;25.610;2023-04-25T06:25:00;17.70;99.90
70986;DHT22;58645;43.068;25.610;2023-04-25T06:27:26;17.70;99.90
70986;DHT22;58645;43.068;25.610;2023-04-25T06:29:52;17.70;99.90
70986;DHT22;58645;43.068;25.610;2023-04-25T06:32:18;17.50;99.90
70986;DHT22;58645;43.068;25.610;2023-04-25T06:34:44;17.50;99.90
70986;DHT22;58645;43.068;25.610;2023-04-25T06:37:10;17.60;99.90
70986;DHT22;58645;43.068;25.610;2023-04-25T06:39:36;17.80;99.90
70986;DHT22;58645;43.068;25.610;2023-04-25T06:42:02;18.00;99.90
70986;DHT22;58645;43.068;25.610;2023-04-25T06:44:28;18.20;99.90
70986;DHT22;58645;43.068;25.610;2023-04-25T06:46:54;18.50;99.90
70986;DHT22;58645;43.068;25.610;2023-04-25T06:49:20;18.80;99.90
70986;DHT22;58645;43.068;25.610;2023-04-25T06:51:50;19.20;99.90
70986;DHT22;58645;43.068;25.610;2023-04-25T06:54:16;19.00;99.90
70986;DHT22;58645;43.068;25.610;2023-04-25T07:00:28;18.40;99.90
70986;DHT22;58645;43.068;25.610;2023-04-25T07:03:01;18.10;99.90
70986;DHT22;58645;43.068;25.610;2023-04-25T07:05:27;18.00;99.90
70986;DHT22;58645;43.068;25.610;2023-04-25T07:07:53;17.90;99.90
70986;DHT22;58645;43.068;25.610;2023-04-25T07:10:19;18.00;99.90
70986;DHT22;58645;43.068;25.610;2023-04-25T07:12:45;18.20;99.90
70986;DHT22;58645;43.068;25.610;2023-04-25T07:15:11;18.30;99.90
70986;DHT22;58645;43.068;25.610;2023-04-25T07:17:38;18.40;99.90
70986;DHT22;58645;43.068;25.610;2023-04-25T07:20:10;18.60;99.90
70986;DHT22;58645;43.068;25.610;2023-04-25T07:22:42;18.80;99.90
70986;DHT22;58645;43.068;25.610;2023-04-25T07:25:09;18.70;99.40
70986;DHT22;58645;43.068;25.610;2023-04-25T07:27:35;19.00;98.00
70986;DHT22;58645;43.068;25.610;2023-04-25T07:30:01;19.20;97.50
70986;DHT22;58645;43.068;25.610;2023-04-25T07:32:27;19.40;98.00
70986;DHT22;58645;43.068;25.610;2023-04-25T07:34:53;19.70;96.50
70986;DHT22;58645;43.068;25.610;2023-04-25T07:37:19;20.00;94.90
70986;DHT22;58645;43.068;25.610;2023-04-25T07:39:51;20.20;93.00
70986;DHT22;58645;43.068;25.610;2023-04-25T07:42:17;20.40;92.50
70986;DHT22;58645;43.068;25.610;2023-04-25T07:44:43;20.80;92.40
70986;DHT22;58645;43.068;25.610;2023-04-25T07:47:09;21.50;86.10
70986;DHT22;58645;43.068;25.610;2023-04-25T07:49:36;22.30;80.20
70986;DHT22;58645;43.068;25.610;2023-04-25T07:52:03;22.50;75.80
70986;DHT22;58645;43.068;25.610;2023-04-25T07:54:29;22.80;73.00
70986;DHT22;58645;43.068;25.610;2023-04-25T07:56:56;23.40;70.50
70986;DHT22;58645;43.068;25.610;2023-04-25T07:59:24;24.50;68.10
70986;DHT22;58645;43.068;25.610;2023-04-25T08:02:03;25.20;62.00
70986;DHT22;58645;43.068;25.610;2023-04-25T08:04:31;26.00;58.60
70986;DHT22;58645;43.068;25.610;2023-04-25T08:06:57;27.00;57.50
70986;DHT22;58645;43.068;25.610;2023-04-25T08:09:23;26.60;51.90
70986;DHT22;58645;43.068;25.610;2023-04-25T08:11:49;27.40;55.10
70986;DHT22;58645;43.068;25.610;2023-04-25T08:14:19;27.00;51.60
70986;DHT22;58645;43.068;25.610;2023-04-25T08:16:45;26.30;52.00
70986;DHT22;58645;43.068;25.610;2023-04-25T08:19:11;26.60;52.50
70986;DHT22;58645;43.068;25.610;2023-04-25T08:21:37;27.50;49.60
70986;DHT22;58645;43.068;25.610;2023-04-25T08:24:03;28.00;48.30
70986;DHT22;58645;43.068;25.610;2023-04-25T08:26:29;28.60;46.80
70986;DHT22;58645;43.068;25.610;2023-04-25T08:28:55;28.90;43.60
70986;DHT22;58645;43.068;25.610;2023-04-25T08:31:21;27.80;42.30
70986;DHT22;58645;43.068;25.610;2023-04-25T08:33:47;27.80;44.30
70986;DHT22;58645;43.068;25.610;2023-04-25T08:36:15;27.80;43.00
70986;DHT22;58645;43.068;25.610;2023-04-25T08:38:43;27.50;42.90
70986;DHT22;58645;43.068;25.610;2023-04-25T08:41:13;27.60;44.70
70986;DHT22;58645;43.068;25.610;2023-04-25T08:43:42;27.20;44.50
70986;DHT22;58645;43.068;25.610;2023-04-25T08:46:09;26.60;46.00
70986;DHT22;58645;43.068;25.610;2023-04-25T08:48:37;26.30;48.50
70986;DHT22;58645;43.068;25.610;2023-04-25T08:51:04;27.40;44.90
70986;DHT22;58645;43.068;25.610;2023-04-25T08:53:32;26.80;44.70
70986;DHT22;58645;43.068;25.610;2023-04-25T08:56:01;27.10;45.90
70986;DHT22;58645;43.068;25.610;2023-04-25T08:58:29;27.20;45.40
70986;DHT22;58645;43.068;25.610;2023-04-25T09:00:56;27.60;45.50
70986;DHT22;58645;43.068;25.610;2023-04-25T09:03:22;27.60;47.00
70986;DHT22;58645;43.068;25.610;2023-04-25T09:05:51;27.00;46.30
70986;DHT22;58645;43.068;25.610;2023-04-25T09:08:18;26.30;46.20
70986;DHT22;58645;43.068;25.610;2023-04-25T09:10:43;26.30;47.30
70986;DHT22;58645;43.068;25.610;2023-04-25T09:13:11;26.80;45.50
70986;DHT22;58645;43.068;25.610;2023-04-25T09:16:06;27.30;46.40
70986;DHT22;58645;43.068;25.610;2023-04-25T09:18:33;27.40;47.00
70986;DHT22;58645;43.068;25.610;2023-04-25T09:21:10;27.90;45.30
70986;DHT22;58645;43.068;25.610;2023-04-25T09:23:43;27.50;44.40
70986;DHT22;58645;43.068;25.610;2023-04-25T09:26:09;28.10;44.40
70986;DHT22;58645;43.068;25.610;2023-04-25T09:28:35;28.20;42.20
70986;DHT22;58645;43.068;25.610;2023-04-25T09:31:03;28.60;41.70
70986;DHT22;58645;43.068;25.610;2023-04-25T09:33:33;29.00;40.50
70986;DHT22;58645;43.068;25.610;2023-04-25T09:36:09;29.10;41.30
70986;DHT22;58645;43.068;25.610;2023-04-25T09:38:44;29.30;39.40
70986;DHT22;58645;43.068;25.610;2023-04-25T09:41:11;28.10;40.60
70986;DHT22;58645;43.068;25.610;2023-04-25T09:43:39;27.50;41.40
70986;DHT22;58645;43.068;25.610;2023-04-25T09:46:10;27.10;42.20
70986;DHT22;58645;43.068;25.610;2023-04-25T09:48:36;27.10;42.90
70986;DHT22;58645;43.068;25.610;2023-04-25T09:51:07;26.30;42.80
70986;DHT22;58645;43.068;25.610;2023-04-25T09:53:35;25.30;45.00
70986;DHT22;58645;43.068;25.610;2023-04-25T09:56:04;23.70;49.00
70986;DHT22;58645;43.068;25.610;2023-04-25T09:58:31;21.80;52.80
70986;DHT22;58645;43.068;25.610;2023-04-25T10:01:16;20.60;59.20
70986;DHT22;58645;43.068;25.610;2023-04-25T10:03:43;19.30;67.50
70986;DHT22;58645;43.068;25.610;2023-04-25T10:06:13;17.10;82.10
70986;DHT22;58645;43.068;25.610;2023-04-25T10:08:39;15.00;99.90
70986;DHT22;58645;43.068;25.610;2023-04-25T10:11:08;13.80;99.90
70986;DHT22;58645;43.068;25.610;2023-04-25T10:13:35;13.20;99.90
70986;DHT22;58645;43.068;25.610;2023-04-25T10:16:03;12.80;99.90
70986;DHT22;58645;43.068;25.610;2023-04-25T10:18:30;12.70;99.90
70986;DHT22;58645;43.068;25.610;2023-04-25T10:21:01;12.60;99.90
70986;DHT22;58645;43.068;25.610;2023-04-25T10:23:27;12.60;99.90
70986;DHT22;58645;43.068;25.610;2023-04-25T10:25:55;12.60;99.90
70986;DHT22;58645;43.068;25.610;2023-04-25T10:28:21;12.50;99.90
70986;DHT22;58645;43.068;25.610;2023-04-25T10:31:04;12.60;99.90
70986;DHT22;58645;43.068;25.610;2023-04-25T10:33:39;12.80;99.90
70986;DHT22;58645;43.068;25.610;2023-04-25T10:36:11;12.80;99.90
70986;DHT22;58645;43.068;25.610;2023-04-25T10:38:37;12.80;99.90
70986;DHT22;58645;43.068;25.610;2023-04-25T10:41:07;12.80;99.90
70986;DHT22;58645;43.068;25.610;2023-04-25T10:43:41;12.90;99.90
70986;DHT22;58645;43.068;25.610;2023-04-25T10:46:21;13.00;99.90
70986;DHT22;58645;43.068;25.610;2023-04-25T10:48:51;13.10;99.90
70986;DHT22;58645;43.068;25.610;2023-04-25T10:51:20;13.20;99.90
70986;DHT22;58645;43.068;25.610;2023-04-25T10:56:31;13.40;99.90
70986;DHT22;58645;43.068;25.610;2023-04-25T10:59:10;13.50;99.90
70986;DHT22;58645;43.068;25.610;2023-04-25T11:01:40;13.90;99.90
70986;DHT22;58645;43.068;25.610;2023-04-25T11:07:12;14.70;99.90
70986;DHT22;58645;43.068;25.610;2023-04-25T11:09:40;15.30;99.90
70986;DHT22;58645;43.068;25.610;2023-04-25T11:12:09;15.60;99.90
70986;DHT22;58645;43.068;25.610;2023-04-25T11:14:37;15.70;99.90
70986;DHT22;58645;43.068;25.610;2023-04-25T11:17:05;15.60;99.90
70986;DHT22;58645;43.068;25.610;2023-04-25T11:19:31;15.40;99.90
70986;DHT22;58645;43.068;25.610;2023-04-25T11:22:01;15.20;99.90
70986;DHT22;58645;43.068;25.610;2023-04-25T11:24:32;15.10;99.90
70986;DHT22;58645;43.068;25.610;2023-04-25T11:26:59;15.00;99.90
70986;DHT22;58645;43.068;25.610;2023-04-25T11:29:32;15.20;99.90
70986;DHT22;58645;43.068;25.610;2023-04-25T11:32:00;15.20;99.90
70986;DHT22;58645;43.068;25.610;2023-04-25T11:34:27;15.60;99.90
70986;DHT22;58645;43.068;25.610;2023-04-25T11:36:56;16.40;99.90
70986;DHT22;58645;43.068;25.610;2023-04-25T11:39:23;17.40;99.90
70986;DHT22;58645;43.068;25.610;2023-04-25T11:41:49;18.10;99.90
70986;DHT22;58645;43.068;25.610;2023-04-25T11:44:16;18.80;99.90
70986;DHT22;58645;43.068;25.610;2023-04-25T11:46:42;19.10;99.90
70986;DHT22;58645;43.068;25.610;2023-04-25T11:49:08;19.40;99.90
70986;DHT22;58645;43.068;25.610;2023-04-25T11:51:42;19.60;99.90
70986;DHT22;58645;43.068;25.610;2023-04-25T11:54:09;19.80;99.90
70986;DHT22;58645;43.068;25.610;2023-04-25T11:56:35;20.00;99.90
70986;DHT22;58645;43.068;25.610;2023-04-25T11:59:01;20.10;99.90
70986;DHT22;58645;43.068;25.610;2023-04-25T12:01:37;20.60;99.90
70986;DHT22;58645;43.068;25.610;2023-04-25T12:04:23;21.10;99.90
70986;DHT22;58645;43.068;25.610;2023-04-25T12:06:51;21.10;99.90
70986;DHT22;58645;43.068;25.610;2023-04-25T12:09:37;20.90;99.90
70986;DHT22;58645;43.068;25.610;2023-04-25T12:12:03;20.40;99.90
70986;DHT22;58645;43.068;25.610;2023-04-25T12:14:34;19.90;99.90
70986;DHT22;58645;43.068;25.610;2023-04-25T12:17:02;19.50;99.90
70986;DHT22;58645;43.068;25.610;2023-04-25T12:19:33;19.30;99.90
70986;DHT22;58645;43.068;25.610;2023-04-25T12:22:00;19.40;99.90
70986;DHT22;58645;43.068;25.610;2023-04-25T12:24:27;19.40;99.90
70986;DHT22;58645;43.068;25.610;2023-04-25T12:27:03;19.00;99.90
70986;DHT22;58645;43.068;25.610;2023-04-25T12:29:32;18.80;99.90
70986;DHT22;58645;43.068;25.610;2023-04-25T12:31:58;18.70;99.90
70986;DHT22;58645;43.068;25.610;2023-04-25T12:34:24;18.40;99.90
70986;DHT22;58645;43.068;25.610;2023-04-25T12:36:51;18.20;99.90
70986;DHT22;58645;43.068;25.610;2023-04-25T12:39:18;18.00;99.90
70986;DHT22;58645;43.068;25.610;2023-04-25T12:41:45;17.80;99.90
70986;DHT22;58645;43.068;25.610;2023-04-25T12:44:12;17.50;99.90
70986;DHT22;58645;43.068;25.610;2023-04-25T12:46:38;17.30;99.90
70986;DHT22;58645;43.068;25.610;2023-04-25T12:49:04;17.20;99.90
70986;DHT22;58645;43.068;25.610;2023-04-25T12:51:30;16.90;99.90
70986;DHT22;58645;43.068;25.610;2023-04-25T12:54:01;16.70;99.90
70986;DHT22;58645;43.068;25.610;2023-04-25T12:56:28;16.60;99.90
70986;DHT22;58645;43.068;25.610;2023-04-25T12:58:54;16.30;99.90
70986;DHT22;58645;43.068;25.610;2023-04-25T13:01:21;16.20;99.90
70986;DHT22;58645;43.068;25.610;2023-04-25T13:03:47;16.20;99.90
70986;DHT22;58645;43.068;25.610;2023-04-25T13:06:14;16.00;99.90
70986;DHT22;58645;43.068;25.610;2023-04-25T13:08:40;16.00;99.90
70986;DHT22;58645;43.068;25.610;2023-04-25T13:11:07;15.80;99.90
70986;DHT22;58645;43.068;25.610;2023-04-25T13:13:33;15.70;99.90
70986;DHT22;58645;43.068;25.610;2023-04-25T13:16:06;15.60;99.90
70986;DHT22;58645;43.068;25.610;2023-04-25T13:18:33;15.50;99.90
70986;DHT22;58645;43.068;25.610;2023-04-25T13:21:00;15.30;99.90
70986;DHT22;58645;43.068;25.610;2023-04-25T13:23:27;15.20;99.90
70986;DHT22;58645;43.068;25.610;2023-04-25T13:25:53;15.10;99.90
70986;DHT22;58645;43.068;25.610;2023-04-25T13:28:20;15.00;99.90
70986;DHT22;58645;43.068;25.610;2023-04-25T13:30:46;14.90;99.90
70986;DHT22;58645;43.068;25.610;2023-04-25T13:33:14;14.90;99.90
70986;DHT22;58645;43.068;25.610;2023-04-25T13:35:40;14.70;99.90
70986;DHT22;58645;43.068;25.610;2023-04-25T13:38:06;14.60;99.90
70986;DHT22;58645;43.068;25.610;2023-04-25T13:40:31;14.40;99.90
70986;DHT22;58645;43.068;25.610;2023-04-25T13:42:58;14.30;99.90
70986;DHT22;58645;43.068;25.610;2023-04-25T13:45:24;14.20;99.90
70986;DHT22;58645;43.068;25.610;2023-04-25T13:47:50;14.30;99.90
70986;DHT22;58645;43.068;25.610;2023-04-25T13:50:16;14.30;99.90
70986;DHT22;58645;43.068;25.610;2023-04-25T13:52:42;14.30;99.90
70986;DHT22;58645;43.068;25.610;2023-04-25T13:55:09;14.50;99.90
70986;DHT22;58645;43.068;25.610;2023-04-25T13:57:35;14.60;99.90
70986;DHT22;58645;43.068;25.610;2023-04-25T14:00:04;14.90;99.90
70986;DHT22;58645;43.068;25.610;2023-04-25T14:02:35;15.00;99.90
70986;DHT22;58645;43.068;25.610;2023-04-25T14:05:01;15.10;99.90
70986;DHT22;58645;43.068;25.610;2023-04-25T14:07:27;15.20;99.90
70986;DHT22;58645;43.068;25.610;2023-04-25T14:09:53;15.10;99.90
70986;DHT22;58645;43.068;25.610;2023-04-25T14:12:18;15.10;99.90
70986;DHT22;58645;43.068;25.610;2023-04-25T14:14:44;15.00;99.90
70986;DHT22;58645;43.068;25.610;2023-04-25T14:17:10;14.90;99.90
70986;DHT22;58645;43.068;25.610;2023-04-25T14:19:36;14.90;99.90
70986;DHT22;58645;43.068;25.610;2023-04-25T14:22:04;14.90;99.90
70986;DHT22;58645;43.068;25.610;2023-04-25T14:24:30;14.80;99.90
70986;DHT22;58645;43.068;25.610;2023-04-25T14:26:56;14.80;99.90
70986;DHT22;58645;43.068;25.610;2023-04-25T14:29:21;14.70;99.90
70986;DHT22;58645;43.068;25.610;2023-04-25T14:31:47;14.80;99.90
70986;DHT22;58645;43.068;25.610;2023-04-25T14:34:13;14.80;99.90
70986;DHT22;58645;43.068;25.610;2023-04-25T14:36:39;14.90;99.90
70986;DHT22;58645;43.068;25.610;2023-04-25T14:39:05;14.90;99.90
70986;DHT22;58645;43.068;25.610;2023-04-25T14:41:31;14.70;99.90
70986;DHT22;58645;43.068;25.610;2023-04-25T14:43:57;14.50;99.90
70986;DHT22;58645;43.068;25.610;2023-04-25T14:46:23;14.10;99.90
70986;DHT22;58645;43.068;25.610;2023-04-25T14:48:49;13.70;99.90
70986;DHT22;58645;43.068;25.610;2023-04-25T14:51:15;13.40;99.90
70986;DHT22;58645;43.068;25.610;2023-04-25T14:53:41;13.20;99.90
70986;DHT22;58645;43.068;25.610;2023-04-25T14:56:07;13.00;99.90
70986;DHT22;58645;43.068;25.610;2023-04-25T14:58:34;12.80;99.90
70986;DHT22;58645;43.068;25.610;2023-04-25T15:01:00;12.70;99.90
70986;DHT22;58645;43.068;25.610;2023-04-25T15:03:26;12.50;99.90
70986;DHT22;58645;43.068;25.610;2023-04-25T15:05:54;12.50;99.90
70986;DHT22;58645;43.068;25.610;2023-04-25T15:08:20;12.40;99.90
70986;DHT22;58645;43.068;25.610;2023-04-25T15:10:46;12.30;99.90
70986;DHT22;58645;43.068;25.610;2023-04-25T15:13:12;12.30;99.90
70986;DHT22;58645;43.068;25.610;2023-04-25T15:15:38;12.30;99.90
70986;DHT22;58645;43.068;25.610;2023-04-25T15:18:04;12.20;99.90
70986;DHT22;58645;43.068;25.610;2023-04-25T15:20:30;12.20;99.90
70986;DHT22;58645;43.068;25.610;2023-04-25T15:22:57;12.30;99.90
70986;DHT22;58645;43.068;25.610;2023-04-25T15:25:23;12.40;99.90
70986;DHT22;58645;43.068;25.610;2023-04-25T15:27:48;12.60;99.90